createdAt,value
2018-12-30T00:00:11.550Z,12.55
2018-12-30T00:06:15.783Z,11.78
2018-12-30T00:12:20.343Z,16.97
2018-12-30T00:18:24.705Z,19.20
2018-12-30T00:24:28.921Z,12.90
2018-12-30T00:30:33.293Z,13.25
2018-12-30T00:36:37.554Z,16.40
2018-12-30T00:42:42.265Z,14.10
2018-12-30T00:48:46.564Z,9.93
2018-12-30T00:54:50.820Z,15.53
2018-12-30T01:00:55.033Z,13.60
2018-12-30T01:06:59.309Z,11.77
2018-12-30T01:13:03.579Z,16.90
2018-12-30T01:19:07.841Z,15.88
2018-12-30T01:25:12.222Z,11.80
2018-12-30T01:31:16.416Z,10.87
2018-12-30T01:37:20.685Z,16.45
2018-12-30T01:43:24.938Z,12.67
2018-12-30T01:49:29.121Z,11.88
2018-12-30T01:55:33.574Z,12.90
2018-12-30T02:01:37.944Z,10.43
2018-12-30T02:07:42.113Z,9.30
2018-12-30T02:13:46.383Z,14.03
2018-12-30T02:19:50.649Z,16.13
2018-12-30T02:25:54.936Z,6.80
2018-12-30T02:31:59.152Z,11.73
2018-12-30T02:38:03.426Z,16.97
2018-12-30T02:44:07.905Z,17.97
2018-12-30T02:50:12.095Z,11.80
2018-12-30T02:56:16.295Z,11.47
2018-12-30T03:02:20.551Z,11.77
2018-12-30T03:08:25.027Z,11.23
2018-12-30T03:14:29.289Z,13.60
2018-12-30T03:20:33.551Z,16.20
2018-12-30T03:26:37.777Z,14.53
2018-12-30T03:32:41.961Z,13.63
2018-12-30T03:38:46.237Z,18.03
2018-12-30T03:44:50.932Z,22.67
2018-12-30T03:50:55.295Z,57.90
2018-12-30T03:56:59.556Z,42.60
2018-12-30T04:03:04.073Z,20.23
2018-12-30T04:09:08.526Z,25.70
2018-12-30T04:15:12.767Z,17.92
2018-12-30T04:21:16.999Z,21.60
2018-12-30T04:27:23.823Z,21.83
2018-12-30T04:33:35.941Z,16.93
2018-12-30T04:39:40.143Z,17.70
2018-12-30T04:45:44.405Z,19.10
2018-12-30T04:51:48.655Z,20.37
2018-12-30T04:57:52.839Z,20.40
2018-12-30T05:03:57.185Z,17.20
2018-12-30T05:10:01.402Z,17.07
2018-12-30T05:16:06.839Z,23.63
2018-12-30T05:22:14.019Z,28.63
2018-12-30T05:28:18.279Z,24.57
2018-12-30T05:34:22.482Z,25.93
2018-12-30T05:40:26.758Z,24.30
2018-12-30T05:46:31.537Z,29.77
2018-12-30T05:52:41.740Z,45.90
2018-12-30T05:58:41.650Z,32.63
2018-12-30T06:04:45.910Z,34.77
2018-12-30T06:10:50.198Z,24.80
2018-12-30T06:16:54.422Z,30.27
2018-12-30T06:22:58.614Z,37.37
2018-12-30T06:29:03.071Z,29.23
2018-12-30T06:35:07.354Z,35.07
2018-12-30T06:41:11.557Z,29.10
2018-12-30T06:47:15.743Z,32.53
2018-12-30T06:53:19.975Z,36.30
2018-12-30T06:59:24.193Z,41.53
2018-12-30T07:05:28.381Z,37.13
2018-12-30T07:11:32.568Z,33.53
2018-12-30T07:17:36.753Z,29.93
2018-12-30T07:23:40.955Z,29.90
2018-12-30T07:29:45.167Z,35.37
2018-12-30T07:35:49.583Z,34.60
2018-12-30T07:41:54.773Z,38.67
2018-12-30T07:47:59.152Z,41.10
2018-12-30T07:54:03.375Z,38.92
2018-12-30T08:00:07.889Z,35.20
2018-12-30T08:06:12.069Z,38.83
2018-12-30T08:12:16.483Z,49.50
2018-12-30T08:18:20.708Z,48.23
2018-12-30T08:24:24.944Z,44.00
2018-12-30T08:30:29.156Z,44.93
2018-12-30T08:36:33.343Z,45.20
2018-12-30T08:42:37.535Z,47.25
2018-12-30T08:48:41.814Z,42.90
2018-12-30T08:54:46.053Z,47.30
2018-12-30T09:00:53.605Z,45.13
2018-12-30T09:06:57.826Z,62.40
2018-12-30T09:13:03.285Z,52.10
2018-12-30T09:19:07.596Z,47.67
2018-12-30T09:25:11.773Z,41.75
2018-12-30T09:31:16.091Z,44.88
2018-12-30T09:37:20.274Z,67.60
2018-12-30T09:43:24.463Z,48.80
2018-12-30T09:49:28.631Z,58.13
2018-12-30T09:55:32.819Z,44.48
2018-12-30T10:01:38.351Z,36.20
2018-12-30T10:07:42.603Z,38.17
2018-12-30T10:13:46.784Z,57.07
2018-12-30T10:19:51.053Z,59.63
2018-12-30T10:25:55.255Z,57.33
2018-12-30T10:31:59.801Z,39.03
2018-12-30T10:38:04.075Z,38.58
2018-12-30T10:44:08.559Z,35.00
2018-12-30T10:50:12.798Z,38.85
2018-12-30T10:56:16.959Z,37.30
2018-12-30T11:02:21.207Z,34.90
2018-12-30T11:08:25.431Z,39.75
2018-12-30T11:14:29.627Z,34.13
2018-12-30T11:20:33.830Z,37.78
2018-12-30T11:26:38.022Z,40.15
2018-12-30T11:32:42.305Z,38.30
2018-12-30T11:38:46.498Z,33.10
2018-12-30T11:44:50.676Z,37.35
2018-12-30T11:50:54.957Z,36.17
2018-12-30T11:56:59.134Z,34.60
2018-12-30T12:03:03.467Z,31.68
2018-12-30T12:09:08.430Z,32.73
2018-12-30T12:15:12.667Z,30.55
2018-12-30T12:21:16.889Z,28.27
2018-12-30T12:27:21.061Z,29.85
2018-12-30T12:33:25.413Z,29.18
2018-12-30T12:39:29.604Z,29.87
2018-12-30T12:45:33.949Z,30.95
2018-12-30T12:51:38.229Z,30.97
2018-12-30T12:57:42.503Z,29.92
2018-12-30T13:03:46.701Z,28.15
2018-12-30T13:09:50.891Z,29.80
2018-12-30T13:15:55.173Z,26.80
2018-12-30T13:21:59.351Z,28.62
2018-12-30T13:28:03.761Z,22.50
2018-12-30T13:34:08.139Z,27.93
2018-12-30T13:40:12.334Z,23.98
2018-12-30T13:46:16.560Z,26.12
2018-12-30T13:52:20.721Z,24.25
2018-12-30T13:58:24.911Z,28.50
2018-12-30T14:04:29.304Z,33.30
2018-12-30T14:10:33.833Z,30.88
2018-12-30T14:16:38.042Z,34.65
2018-12-30T14:22:43.113Z,24.65
2018-12-30T14:28:47.382Z,30.00
2018-12-30T14:34:51.612Z,28.27
2018-12-30T14:40:55.785Z,24.05
2018-12-30T14:46:59.970Z,22.58
2018-12-30T14:53:04.255Z,25.35
2018-12-30T14:59:08.418Z,17.80
2018-12-30T15:05:12.872Z,19.35
2018-12-30T15:11:17.044Z,19.42
2018-12-30T15:17:21.370Z,18.57
2018-12-30T15:23:25.572Z,19.32
2018-12-30T15:29:30.058Z,18.60
2018-12-30T15:35:34.237Z,32.45
2018-12-30T15:41:38.480Z,18.35
2018-12-30T15:47:42.669Z,27.35
2018-12-30T15:53:47.137Z,18.55
2018-12-30T15:59:51.345Z,16.93
2018-12-30T16:05:57.832Z,15.78
2018-12-30T16:12:01.529Z,15.40
2018-12-30T16:18:05.711Z,19.02
2018-12-30T16:24:09.908Z,15.48
2018-12-30T16:30:14.102Z,11.18
2018-12-30T16:36:21.389Z,12.03
2018-12-30T16:42:25.661Z,13.95
2018-12-30T16:48:29.973Z,14.18
2018-12-30T16:54:34.245Z,18.85
2018-12-30T17:00:38.446Z,19.87
2018-12-30T17:06:42.719Z,17.95
2018-12-30T17:12:47.001Z,28.65
2018-12-30T17:18:55.988Z,22.90
2018-12-30T17:24:57.076Z,24.10
2018-12-30T17:31:01.391Z,24.00
2018-12-30T17:37:05.694Z,25.05
2018-12-30T17:43:10.037Z,17.17
2018-12-30T17:49:14.248Z,27.95
2018-12-30T17:55:18.447Z,27.60
2018-12-30T18:01:22.720Z,31.15
2018-12-30T18:07:27.106Z,25.15
2018-12-30T18:13:31.298Z,25.30
2018-12-30T18:19:35.539Z,30.88
2018-12-30T18:25:39.722Z,29.60
2018-12-30T18:31:44.019Z,35.08
2018-12-30T18:37:49.802Z,39.85
2018-12-30T18:44:11.762Z,37.40
2018-12-30T18:50:33.616Z,34.63
2018-12-30T18:56:55.544Z,33.65
2018-12-30T19:02:59.727Z,36.05
2018-12-30T19:09:05.624Z,39.95
2018-12-30T19:15:09.827Z,44.53
2018-12-30T19:21:14.013Z,41.83
2018-12-30T19:27:18.207Z,36.70
2018-12-30T19:33:22.502Z,33.78
2018-12-30T19:39:44.844Z,41.40
2018-12-30T19:45:49.188Z,44.18
2018-12-30T19:51:53.703Z,33.65
2018-12-30T19:57:58.312Z,40.90
2018-12-30T20:04:02.999Z,35.48
2018-12-30T20:10:08.231Z,36.77
2018-12-30T20:16:12.728Z,35.03
2018-12-30T20:22:17.267Z,33.18
2018-12-30T20:28:21.857Z,34.20
2018-12-30T20:34:26.757Z,36.42
2018-12-30T20:40:31.672Z,36.48
2018-12-30T20:46:36.246Z,35.78
2018-12-30T20:52:45.137Z,35.73
2018-12-30T20:58:49.333Z,40.52
2018-12-30T21:04:53.589Z,40.15
2018-12-30T21:10:57.768Z,38.78
2018-12-30T21:17:02.009Z,42.30
2018-12-30T21:23:06.201Z,37.33
2018-12-30T21:29:10.467Z,41.70
2018-12-30T21:35:14.633Z,43.08
2018-12-30T21:41:18.853Z,40.17
2018-12-30T21:47:23.048Z,44.70
2018-12-30T21:53:27.222Z,44.75
2018-12-30T21:59:31.417Z,46.48
2018-12-30T22:05:35.681Z,47.83
2018-12-30T22:11:39.973Z,43.63
2018-12-30T22:17:44.226Z,40.25
2018-12-30T22:23:48.506Z,42.03
2018-12-30T22:29:52.702Z,45.25
2018-12-30T22:35:57.220Z,40.78
2018-12-30T22:42:01.436Z,35.48
2018-12-30T22:48:05.662Z,39.67
2018-12-30T22:54:10.015Z,36.98
2018-12-30T23:00:25.942Z,36.90
2018-12-30T23:06:30.126Z,33.35
2018-12-30T23:12:34.420Z,42.03
2018-12-30T23:18:38.614Z,51.20
2018-12-30T23:24:42.851Z,45.20
2018-12-30T23:30:47.038Z,47.58
2018-12-30T23:36:51.234Z,51.30
2018-12-30T23:42:55.440Z,49.60
2018-12-30T23:48:59.625Z,55.08
2018-12-30T23:55:03.976Z,52.58
